sensor_id;sensor_type;location;lat;lon;timestamp;P1;durP1;ratioP1;P2;durP2;ratioP2
37477;SDS011;23334;54.316;10.182;2023-08-24T00:00:21;3.60;;;3.30;;
37477;SDS011;23334;54.316;10.182;2023-08-24T00:02:47;7.23;;;3.03;;
37477;SDS011;23334;54.316;10.182;2023-08-24T00:05:12;4.30;;;2.67;;
37477;SDS011;23334;54.316;10.182;2023-08-24T00:07:38;7.00;;;2.50;;
37477;SDS011;23334;54.316;10.182;2023-08-24T00:10:04;4.60;;;2.20;;
37477;SDS011;23334;54.316;10.182;2023-08-24T00:12:30;2.50;;;2.30;;
37477;SDS011;23334;54.316;10.182;2023-08-24T00:14:58;2.60;;;2.40;;
37477;SDS011;23334;54.316;10.182;2023-08-24T00:17:23;4.83;;;2.70;;
37477;SDS011;23334;54.316;10.182;2023-08-24T00:19:49;4.63;;;3.10;;
37477;SDS011;23334;54.316;10.182;2023-08-24T00:22:16;3.07;;;2.77;;
37477;SDS011;23334;54.316;10.182;2023-08-24T00:24:43;9.33;;;3.23;;
37477;SDS011;23334;54.316;10.182;2023-08-24T00:27:09;2.80;;;2.60;;
37477;SDS011;23334;54.316;10.182;2023-08-24T00:29:35;4.70;;;2.80;;
37477;SDS011;23334;54.316;10.182;2023-08-24T00:32:02;4.43;;;2.43;;
37477;SDS011;23334;54.316;10.182;2023-08-24T00:34:28;2.83;;;2.63;;
37477;SDS011;23334;54.316;10.182;2023-08-24T00:36:54;7.73;;;2.73;;
37477;SDS011;23334;54.316;10.182;2023-08-24T00:39:21;2.50;;;2.30;;
37477;SDS011;23334;54.316;10.182;2023-08-24T00:41:47;2.80;;;2.60;;
37477;SDS011;23334;54.316;10.182;2023-08-24T00:44:12;2.50;;;2.30;;
37477;SDS011;23334;54.316;10.182;2023-08-24T00:46:38;5.67;;;2.30;;
37477;SDS011;23334;54.316;10.182;2023-08-24T00:49:04;2.67;;;2.47;;
37477;SDS011;23334;54.316;10.182;2023-08-24T00:51:29;2.63;;;2.43;;
37477;SDS011;23334;54.316;10.182;2023-08-24T00:53:55;5.33;;;2.40;;
37477;SDS011;23334;54.316;10.182;2023-08-24T00:56:22;2.60;;;2.40;;
37477;SDS011;23334;54.316;10.182;2023-08-24T00:58:49;5.70;;;2.57;;
37477;SDS011;23334;54.316;10.182;2023-08-24T01:01:17;2.23;;;2.13;;
37477;SDS011;23334;54.316;10.182;2023-08-24T01:03:43;5.23;;;2.40;;
37477;SDS011;23334;54.316;10.182;2023-08-24T01:06:08;2.47;;;2.27;;
37477;SDS011;23334;54.316;10.182;2023-08-24T01:08:34;2.40;;;2.00;;
37477;SDS011;23334;54.316;10.182;2023-08-24T01:11:12;3.33;;;2.27;;
37477;SDS011;23334;54.316;10.182;2023-08-24T01:16:45;2.40;;;2.30;;
37477;SDS011;23334;54.316;10.182;2023-08-24T01:19:20;4.93;;;2.37;;
37477;SDS011;23334;54.316;10.182;2023-08-24T01:22:00;2.93;;;2.27;;
37477;SDS011;23334;54.316;10.182;2023-08-24T01:24:39;3.97;;;2.23;;
37477;SDS011;23334;54.316;10.182;2023-08-24T01:27:11;2.93;;;2.33;;
37477;SDS011;23334;54.316;10.182;2023-08-24T01:29:37;2.67;;;2.17;;
37477;SDS011;23334;54.316;10.182;2023-08-24T01:32:05;2.80;;;2.60;;
37477;SDS011;23334;54.316;10.182;2023-08-24T01:34:37;2.50;;;2.30;;
37477;SDS011;23334;54.316;10.182;2023-08-24T01:37:03;2.83;;;2.67;;
37477;SDS011;23334;54.316;10.182;2023-08-24T01:39:33;4.00;;;2.70;;
37477;SDS011;23334;54.316;10.182;2023-08-24T01:42:08;5.30;;;3.30;;
37477;SDS011;23334;54.316;10.182;2023-08-24T01:44:38;2.30;;;2.10;;
37477;SDS011;23334;54.316;10.182;2023-08-24T01:47:06;3.27;;;2.70;;
37477;SDS011;23334;54.316;10.182;2023-08-24T01:49:36;4.13;;;3.50;;
37477;SDS011;23334;54.316;10.182;2023-08-24T01:52:02;4.07;;;3.10;;
37477;SDS011;23334;54.316;10.182;2023-08-24T01:54:29;3.13;;;3.00;;
37477;SDS011;23334;54.316;10.182;2023-08-24T01:56:55;2.60;;;2.40;;
37477;SDS011;23334;54.316;10.182;2023-08-24T01:59:22;3.33;;;2.77;;
37477;SDS011;23334;54.316;10.182;2023-08-24T02:01:47;6.17;;;2.90;;
37477;SDS011;23334;54.316;10.182;2023-08-24T02:04:19;4.03;;;2.67;;
37477;SDS011;23334;54.316;10.182;2023-08-24T02:06:45;5.80;;;2.60;;
37477;SDS011;23334;54.316;10.182;2023-08-24T02:09:10;3.17;;;2.90;;
37477;SDS011;23334;54.316;10.182;2023-08-24T02:11:36;5.93;;;3.27;;
37477;SDS011;23334;54.316;10.182;2023-08-24T02:14:01;5.03;;;2.70;;
37477;SDS011;23334;54.316;10.182;2023-08-24T02:16:27;5.67;;;2.90;;
37477;SDS011;23334;54.316;10.182;2023-08-24T02:18:53;4.13;;;2.40;;
37477;SDS011;23334;54.316;10.182;2023-08-24T02:23:46;3.23;;;2.60;;
37477;SDS011;23334;54.316;10.182;2023-08-24T02:26:12;2.90;;;2.43;;
37477;SDS011;23334;54.316;10.182;2023-08-24T02:28:37;2.73;;;2.40;;
37477;SDS011;23334;54.316;10.182;2023-08-24T02:31:03;3.73;;;2.47;;
37477;SDS011;23334;54.316;10.182;2023-08-24T02:33:29;3.27;;;2.97;;
37477;SDS011;23334;54.316;10.182;2023-08-24T02:35:55;2.67;;;2.43;;
37477;SDS011;23334;54.316;10.182;2023-08-24T02:38:21;3.17;;;2.83;;
37477;SDS011;23334;54.316;10.182;2023-08-24T02:40:47;2.53;;;2.43;;
37477;SDS011;23334;54.316;10.182;2023-08-24T02:43:13;3.00;;;2.60;;
37477;SDS011;23334;54.316;10.182;2023-08-24T02:45:38;3.27;;;3.07;;
37477;SDS011;23334;54.316;10.182;2023-08-24T02:48:04;2.50;;;2.40;;
37477;SDS011;23334;54.316;10.182;2023-08-24T02:50:30;5.33;;;2.63;;
37477;SDS011;23334;54.316;10.182;2023-08-24T02:52:55;3.30;;;2.73;;
37477;SDS011;23334;54.316;10.182;2023-08-24T02:55:23;4.90;;;2.40;;
37477;SDS011;23334;54.316;10.182;2023-08-24T02:57:49;3.00;;;2.70;;
37477;SDS011;23334;54.316;10.182;2023-08-24T03:00:14;3.50;;;3.20;;
37477;SDS011;23334;54.316;10.182;2023-08-24T03:02:40;2.73;;;2.57;;
37477;SDS011;23334;54.316;10.182;2023-08-24T03:05:05;6.10;;;3.10;;
37477;SDS011;23334;54.316;10.182;2023-08-24T03:07:31;3.77;;;2.90;;
37477;SDS011;23334;54.316;10.182;2023-08-24T03:09:57;6.40;;;2.90;;
37477;SDS011;23334;54.316;10.182;2023-08-24T03:12:22;3.80;;;3.50;;
37477;SDS011;23334;54.316;10.182;2023-08-24T03:14:51;6.23;;;3.10;;
37477;SDS011;23334;54.316;10.182;2023-08-24T03:17:17;4.07;;;3.20;;
37477;SDS011;23334;54.316;10.182;2023-08-24T03:19:43;9.33;;;3.30;;
37477;SDS011;23334;54.316;10.182;2023-08-24T03:22:08;3.53;;;3.23;;
37477;SDS011;23334;54.316;10.182;2023-08-24T03:24:34;6.53;;;2.90;;
37477;SDS011;23334;54.316;10.182;2023-08-24T03:26:59;5.03;;;3.80;;
37477;SDS011;23334;54.316;10.182;2023-08-24T03:29:25;3.40;;;3.20;;
37477;SDS011;23334;54.316;10.182;2023-08-24T03:31:50;4.23;;;3.23;;
37477;SDS011;23334;54.316;10.182;2023-08-24T03:34:15;3.77;;;3.53;;
37477;SDS011;23334;54.316;10.182;2023-08-24T03:36:41;3.90;;;3.50;;
37477;SDS011;23334;54.316;10.182;2023-08-24T03:39:07;4.50;;;3.50;;
37477;SDS011;23334;54.316;10.182;2023-08-24T03:41:32;4.00;;;3.70;;
37477;SDS011;23334;54.316;10.182;2023-08-24T03:43:58;6.20;;;4.00;;
37477;SDS011;23334;54.316;10.182;2023-08-24T03:46:24;6.50;;;3.87;;
37477;SDS011;23334;54.316;10.182;2023-08-24T03:48:49;4.40;;;4.00;;
37477;SDS011;23334;54.316;10.182;2023-08-24T03:51:15;5.40;;;3.70;;
37477;SDS011;23334;54.316;10.182;2023-08-24T03:53:40;6.20;;;4.03;;
37477;SDS011;23334;54.316;10.182;2023-08-24T03:56:06;5.07;;;3.70;;
37477;SDS011;23334;54.316;10.182;2023-08-24T03:58:31;4.30;;;3.73;;
37477;SDS011;23334;54.316;10.182;2023-08-24T04:00:57;4.63;;;3.37;;
37477;SDS011;23334;54.316;10.182;2023-08-24T04:03:22;4.40;;;4.00;;
37477;SDS011;23334;54.316;10.182;2023-08-24T04:05:48;5.23;;;3.27;;
37477;SDS011;23334;54.316;10.182;2023-08-24T04:08:13;5.97;;;4.40;;
37477;SDS011;23334;54.316;10.182;2023-08-24T04:10:39;4.40;;;4.00;;
37477;SDS011;23334;54.316;10.182;2023-08-24T04:13:04;5.50;;;4.23;;
37477;SDS011;23334;54.316;10.182;2023-08-24T04:15:30;4.70;;;4.20;;
37477;SDS011;23334;54.316;10.182;2023-08-24T04:17:55;4.37;;;3.97;;
37477;SDS011;23334;54.316;10.182;2023-08-24T04:20:21;6.30;;;4.10;;
37477;SDS011;23334;54.316;10.182;2023-08-24T04:22:47;11.00;;;4.20;;
37477;SDS011;23334;54.316;10.182;2023-08-24T04:25:12;4.53;;;3.67;;
37477;SDS011;23334;54.316;10.182;2023-08-24T04:27:38;3.83;;;3.53;;
37477;SDS011;23334;54.316;10.182;2023-08-24T04:30:03;4.03;;;3.63;;
37477;SDS011;23334;54.316;10.182;2023-08-24T04:32:31;3.60;;;3.40;;
37477;SDS011;23334;54.316;10.182;2023-08-24T04:34:57;5.77;;;3.67;;
37477;SDS011;23334;54.316;10.182;2023-08-24T04:37:22;9.20;;;3.80;;
37477;SDS011;23334;54.316;10.182;2023-08-24T04:39:48;5.43;;;3.97;;
37477;SDS011;23334;54.316;10.182;2023-08-24T04:42:13;4.53;;;4.13;;
37477;SDS011;23334;54.316;10.182;2023-08-24T04:44:39;3.60;;;3.20;;
37477;SDS011;23334;54.316;10.182;2023-08-24T04:47:04;4.70;;;3.63;;
37477;SDS011;23334;54.316;10.182;2023-08-24T04:49:30;5.10;;;3.77;;
37477;SDS011;23334;54.316;10.182;2023-08-24T04:51:56;3.90;;;3.70;;
37477;SDS011;23334;54.316;10.182;2023-08-24T04:54:21;4.30;;;3.90;;
37477;SDS011;23334;54.316;10.182;2023-08-24T04:56:47;5.73;;;3.80;;
37477;SDS011;23334;54.316;10.182;2023-08-24T04:59:12;4.00;;;3.60;;
37477;SDS011;23334;54.316;10.182;2023-08-24T05:01:38;6.70;;;4.30;;
37477;SDS011;23334;54.316;10.182;2023-08-24T05:04:03;3.83;;;3.30;;
37477;SDS011;23334;54.316;10.182;2023-08-24T05:06:29;4.00;;;3.70;;
37477;SDS011;23334;54.316;10.182;2023-08-24T05:08:54;5.07;;;3.50;;
37477;SDS011;23334;54.316;10.182;2023-08-24T05:11:22;9.23;;;3.93;;
37477;SDS011;23334;54.316;10.182;2023-08-24T05:13:51;3.93;;;3.63;;
37477;SDS011;23334;54.316;10.182;2023-08-24T05:16:17;3.93;;;3.57;;
37477;SDS011;23334;54.316;10.182;2023-08-24T05:18:42;3.43;;;3.17;;
37477;SDS011;23334;54.316;10.182;2023-08-24T05:21:08;3.57;;;3.27;;
37477;SDS011;23334;54.316;10.182;2023-08-24T05:23:34;4.33;;;3.93;;
37477;SDS011;23334;54.316;10.182;2023-08-24T05:26:00;3.97;;;3.60;;
37477;SDS011;23334;54.316;10.182;2023-08-24T05:28:27;7.17;;;3.50;;
37477;SDS011;23334;54.316;10.182;2023-08-24T05:30:54;3.97;;;3.67;;
37477;SDS011;23334;54.316;10.182;2023-08-24T05:33:20;4.80;;;3.83;;
37477;SDS011;23334;54.316;10.182;2023-08-24T05:35:47;11.03;;;4.07;;
37477;SDS011;23334;54.316;10.182;2023-08-24T05:38:13;6.97;;;3.80;;
37477;SDS011;23334;54.316;10.182;2023-08-24T05:40:39;3.67;;;3.33;;
37477;SDS011;23334;54.316;10.182;2023-08-24T05:43:06;4.73;;;4.33;;
37477;SDS011;23334;54.316;10.182;2023-08-24T05:45:31;9.43;;;3.90;;
37477;SDS011;23334;54.316;10.182;2023-08-24T05:47:57;4.50;;;4.10;;
37477;SDS011;23334;54.316;10.182;2023-08-24T05:50:22;4.30;;;3.90;;
37477;SDS011;23334;54.316;10.182;2023-08-24T05:52:48;4.17;;;3.50;;
37477;SDS011;23334;54.316;10.182;2023-08-24T05:55:13;4.40;;;4.00;;
37477;SDS011;23334;54.316;10.182;2023-08-24T05:57:39;7.03;;;3.73;;
37477;SDS011;23334;54.316;10.182;2023-08-24T06:00:05;5.87;;;4.00;;
37477;SDS011;23334;54.316;10.182;2023-08-24T06:02:35;3.57;;;3.30;;
37477;SDS011;23334;54.316;10.182;2023-08-24T06:05:04;4.93;;;3.77;;
37477;SDS011;23334;54.316;10.182;2023-08-24T06:07:31;4.27;;;3.43;;
37477;SDS011;23334;54.316;10.182;2023-08-24T06:09:57;5.70;;;3.70;;
37477;SDS011;23334;54.316;10.182;2023-08-24T06:12:23;6.77;;;3.20;;
37477;SDS011;23334;54.316;10.182;2023-08-24T06:14:48;3.87;;;3.50;;
37477;SDS011;23334;54.316;10.182;2023-08-24T06:17:14;8.13;;;3.33;;
37477;SDS011;23334;54.316;10.182;2023-08-24T06:19:39;7.13;;;3.40;;
37477;SDS011;23334;54.316;10.182;2023-08-24T06:22:06;9.73;;;3.30;;
37477;SDS011;23334;54.316;10.182;2023-08-24T06:24:31;6.67;;;3.53;;
37477;SDS011;23334;54.316;10.182;2023-08-24T06:26:57;4.83;;;3.13;;
37477;SDS011;23334;54.316;10.182;2023-08-24T06:29:22;3.93;;;3.23;;
37477;SDS011;23334;54.316;10.182;2023-08-24T06:31:48;3.47;;;3.17;;
37477;SDS011;23334;54.316;10.182;2023-08-24T06:34:13;3.40;;;2.60;;
37477;SDS011;23334;54.316;10.182;2023-08-24T06:36:39;3.53;;;3.33;;
37477;SDS011;23334;54.316;10.182;2023-08-24T06:39:04;4.73;;;3.20;;
37477;SDS011;23334;54.316;10.182;2023-08-24T06:41:34;2.50;;;2.30;;
37477;SDS011;23334;54.316;10.182;2023-08-24T06:44:00;2.20;;;2.10;;
37477;SDS011;23334;54.316;10.182;2023-08-24T06:46:25;6.80;;;2.70;;
37477;SDS011;23334;54.316;10.182;2023-08-24T06:48:51;4.03;;;2.07;;
37477;SDS011;23334;54.316;10.182;2023-08-24T06:51:16;3.30;;;2.33;;
37477;SDS011;23334;54.316;10.182;2023-08-24T06:53:42;5.53;;;2.30;;
37477;SDS011;23334;54.316;10.182;2023-08-24T06:56:08;2.50;;;2.30;;
37477;SDS011;23334;54.316;10.182;2023-08-24T06:58:34;9.07;;;2.37;;
37477;SDS011;23334;54.316;10.182;2023-08-24T07:00:59;2.03;;;1.60;;
37477;SDS011;23334;54.316;10.182;2023-08-24T07:03:25;2.30;;;1.83;;
37477;SDS011;23334;54.316;10.182;2023-08-24T07:05:51;7.07;;;2.00;;
37477;SDS011;23334;54.316;10.182;2023-08-24T07:08:17;1.97;;;1.63;;
37477;SDS011;23334;54.316;10.182;2023-08-24T07:10:43;7.33;;;1.93;;
37477;SDS011;23334;54.316;10.182;2023-08-24T07:13:08;2.87;;;2.03;;
37477;SDS011;23334;54.316;10.182;2023-08-24T07:15:34;2.43;;;1.80;;
37477;SDS011;23334;54.316;10.182;2023-08-24T07:18:03;3.17;;;1.47;;
37477;SDS011;23334;54.316;10.182;2023-08-24T07:20:30;4.60;;;1.63;;
37477;SDS011;23334;54.316;10.182;2023-08-24T07:22:59;2.00;;;1.80;;
37477;SDS011;23334;54.316;10.182;2023-08-24T07:25:25;3.07;;;1.53;;
37477;SDS011;23334;54.316;10.182;2023-08-24T07:27:51;6.93;;;1.80;;
37477;SDS011;23334;54.316;10.182;2023-08-24T07:30:19;1.87;;;1.33;;
37477;SDS011;23334;54.316;10.182;2023-08-24T07:32:44;7.60;;;1.73;;
37477;SDS011;23334;54.316;10.182;2023-08-24T07:35:10;3.77;;;1.33;;
37477;SDS011;23334;54.316;10.182;2023-08-24T07:37:35;6.70;;;1.80;;
37477;SDS011;23334;54.316;10.182;2023-08-24T07:40:01;3.47;;;1.30;;
37477;SDS011;23334;54.316;10.182;2023-08-24T07:42:26;1.30;;;1.10;;
37477;SDS011;23334;54.316;10.182;2023-08-24T07:44:52;2.80;;;1.07;;
37477;SDS011;23334;54.316;10.182;2023-08-24T07:47:17;4.43;;;1.33;;
37477;SDS011;23334;54.316;10.182;2023-08-24T07:49:43;3.27;;;1.20;;
37477;SDS011;23334;54.316;10.182;2023-08-24T07:52:10;2.03;;;1.30;;
37477;SDS011;23334;54.316;10.182;2023-08-24T07:54:37;7.00;;;1.07;;
37477;SDS011;23334;54.316;10.182;2023-08-24T07:57:02;2.10;;;1.23;;
37477;SDS011;23334;54.316;10.182;2023-08-24T07:59:29;2.90;;;1.30;;
37477;SDS011;23334;54.316;10.182;2023-08-24T08:01:54;6.07;;;0.90;;
37477;SDS011;23334;54.316;10.182;2023-08-24T08:04:20;6.13;;;1.40;;
37477;SDS011;23334;54.316;10.182;2023-08-24T08:06:45;4.20;;;1.00;;
37477;SDS011;23334;54.316;10.182;2023-08-24T08:09:11;4.40;;;1.10;;
37477;SDS011;23334;54.316;10.182;2023-08-24T08:11:37;3.93;;;1.20;;
37477;SDS011;23334;54.316;10.182;2023-08-24T08:14:02;1.53;;;1.10;;
37477;SDS011;23334;54.316;10.182;2023-08-24T08:16:28;3.80;;;1.23;;
37477;SDS011;23334;54.316;10.182;2023-08-24T08:18:54;2.30;;;1.27;;
37477;SDS011;23334;54.316;10.182;2023-08-24T08:21:19;4.20;;;1.40;;
37477;SDS011;23334;54.316;10.182;2023-08-24T08:23:45;5.10;;;1.13;;
37477;SDS011;23334;54.316;10.182;2023-08-24T08:26:11;2.63;;;1.17;;
37477;SDS011;23334;54.316;10.182;2023-08-24T08:28:38;2.70;;;1.10;;
37477;SDS011;23334;54.316;10.182;2023-08-24T08:31:04;1.30;;;0.77;;
37477;SDS011;23334;54.316;10.182;2023-08-24T08:33:29;6.07;;;1.30;;
37477;SDS011;23334;54.316;10.182;2023-08-24T08:35:55;3.27;;;1.10;;
37477;SDS011;23334;54.316;10.182;2023-08-24T08:38:21;2.07;;;0.80;;
37477;SDS011;23334;54.316;10.182;2023-08-24T08:40:50;3.83;;;1.00;;
37477;SDS011;23334;54.316;10.182;2023-08-24T08:43:18;2.20;;;0.77;;
37477;SDS011;23334;54.316;10.182;2023-08-24T08:45:49;1.60;;;0.90;;
37477;SDS011;23334;54.316;10.182;2023-08-24T08:48:16;2.00;;;0.80;;
37477;SDS011;23334;54.316;10.182;2023-08-24T08:50:42;2.40;;;1.00;;
37477;SDS011;23334;54.316;10.182;2023-08-24T08:53:07;2.33;;;0.77;;
37477;SDS011;23334;54.316;10.182;2023-08-24T08:55:33;1.10;;;1.00;;
37477;SDS011;23334;54.316;10.182;2023-08-24T08:57:59;2.33;;;0.90;;
37477;SDS011;23334;54.316;10.182;2023-08-24T09:00:27;1.83;;;0.80;;
37477;SDS011;23334;54.316;10.182;2023-08-24T09:02:53;1.97;;;0.93;;
37477;SDS011;23334;54.316;10.182;2023-08-24T09:05:21;0.90;;;0.80;;
37477;SDS011;23334;54.316;10.182;2023-08-24T09:07:48;2.30;;;1.07;;
37477;SDS011;23334;54.316;10.182;2023-08-24T09:10:14;3.60;;;0.80;;
37477;SDS011;23334;54.316;10.182;2023-08-24T09:12:39;2.87;;;0.70;;
37477;SDS011;23334;54.316;10.182;2023-08-24T09:15:05;4.10;;;0.83;;
37477;SDS011;23334;54.316;10.182;2023-08-24T09:17:32;1.80;;;0.83;;
37477;SDS011;23334;54.316;10.182;2023-08-24T09:19:58;1.50;;;0.60;;
37477;SDS011;23334;54.316;10.182;2023-08-24T09:22:25;1.20;;;0.70;;
37477;SDS011;23334;54.316;10.182;2023-08-24T09:24:51;3.13;;;0.73;;
37477;SDS011;23334;54.316;10.182;2023-08-24T09:27:19;3.40;;;0.90;;
37477;SDS011;23334;54.316;10.182;2023-08-24T09:29:49;2.03;;;0.90;;
37477;SDS011;23334;54.316;10.182;2023-08-24T09:32:23;1.50;;;0.90;;
37477;SDS011;23334;54.316;10.182;2023-08-24T09:34:49;2.30;;;0.70;;
37477;SDS011;23334;54.316;10.182;2023-08-24T09:37:15;2.53;;;0.87;;
37477;SDS011;23334;54.316;10.182;2023-08-24T09:39:41;5.60;;;0.70;;
37477;SDS011;23334;54.316;10.182;2023-08-24T09:42:07;3.80;;;0.90;;
37477;SDS011;23334;54.316;10.182;2023-08-24T09:44:32;1.80;;;0.67;;
37477;SDS011;23334;54.316;10.182;2023-08-24T09:46:58;2.10;;;0.90;;
37477;SDS011;23334;54.316;10.182;2023-08-24T09:49:24;2.17;;;1.50;;
37477;SDS011;23334;54.316;10.182;2023-08-24T09:51:51;1.17;;;1.00;;
37477;SDS011;23334;54.316;10.182;2023-08-24T09:54:22;2.03;;;0.67;;
37477;SDS011;23334;54.316;10.182;2023-08-24T09:56:52;1.73;;;0.90;;
37477;SDS011;23334;54.316;10.182;2023-08-24T09:59:21;3.53;;;1.13;;
37477;SDS011;23334;54.316;10.182;2023-08-24T10:01:50;1.17;;;0.80;;
37477;SDS011;23334;54.316;10.182;2023-08-24T10:04:21;0.87;;;0.80;;
37477;SDS011;23334;54.316;10.182;2023-08-24T10:06:49;4.13;;;0.77;;
37477;SDS011;23334;54.316;10.182;2023-08-24T10:09:25;3.07;;;1.17;;
37477;SDS011;23334;54.316;10.182;2023-08-24T10:11:58;3.03;;;0.80;;
37477;SDS011;23334;54.316;10.182;2023-08-24T10:14:29;3.13;;;1.00;;
37477;SDS011;23334;54.316;10.182;2023-08-24T10:16:57;4.90;;;0.87;;
37477;SDS011;23334;54.316;10.182;2023-08-24T10:19:23;1.30;;;0.63;;
37477;SDS011;23334;54.316;10.182;2023-08-24T10:21:50;1.80;;;0.90;;
37477;SDS011;23334;54.316;10.182;2023-08-24T10:24:18;2.73;;;0.90;;
37477;SDS011;23334;54.316;10.182;2023-08-24T10:26:46;1.80;;;0.83;;
37477;SDS011;23334;54.316;10.182;2023-08-24T10:29:12;2.17;;;1.03;;
37477;SDS011;23334;54.316;10.182;2023-08-24T10:31:39;2.23;;;1.23;;
37477;SDS011;23334;54.316;10.182;2023-08-24T10:34:06;0.90;;;0.80;;
37477;SDS011;23334;54.316;10.182;2023-08-24T10:36:32;2.80;;;0.87;;
37477;SDS011;23334;54.316;10.182;2023-08-24T10:39:04;2.33;;;1.10;;
37477;SDS011;23334;54.316;10.182;2023-08-24T10:41:45;1.83;;;1.13;;
37477;SDS011;23334;54.316;10.182;2023-08-24T10:44:23;1.30;;;0.80;;
37477;SDS011;23334;54.316;10.182;2023-08-24T10:49:38;2.50;;;0.90;;
37477;SDS011;23334;54.316;10.182;2023-08-24T10:55:04;2.83;;;0.80;;
37477;SDS011;23334;54.316;10.182;2023-08-24T10:57:51;2.50;;;1.00;;
37477;SDS011;23334;54.316;10.182;2023-08-24T11:00:27;3.00;;;0.90;;
37477;SDS011;23334;54.316;10.182;2023-08-24T11:02:53;3.10;;;1.50;;
37477;SDS011;23334;54.316;10.182;2023-08-24T11:05:23;2.40;;;0.80;;
37477;SDS011;23334;54.316;10.182;2023-08-24T11:08:04;6.77;;;1.00;;
37477;SDS011;23334;54.316;10.182;2023-08-24T11:13:09;1.67;;;1.10;;
37477;SDS011;23334;54.316;10.182;2023-08-24T11:15:43;1.10;;;0.97;;
37477;SDS011;23334;54.316;10.182;2023-08-24T11:18:13;2.43;;;1.10;;
37477;SDS011;23334;54.316;10.182;2023-08-24T11:20:53;2.23;;;1.00;;
37477;SDS011;23334;54.316;10.182;2023-08-24T11:23:26;1.30;;;1.00;;
37477;SDS011;23334;54.316;10.182;2023-08-24T11:25:53;5.13;;;1.30;;
37477;SDS011;23334;54.316;10.182;2023-08-24T11:28:26;3.37;;;1.10;;
37477;SDS011;23334;54.316;10.182;2023-08-24T11:30:53;2.50;;;1.23;;
37477;SDS011;23334;54.316;10.182;2023-08-24T11:33:29;1.20;;;0.90;;
37477;SDS011;23334;54.316;10.182;2023-08-24T11:35:56;2.90;;;0.90;;
37477;SDS011;23334;54.316;10.182;2023-08-24T11:38:23;2.07;;;0.93;;
37477;SDS011;23334;54.316;10.182;2023-08-24T11:40:49;1.83;;;1.10;;
37477;SDS011;23334;54.316;10.182;2023-08-24T11:43:23;1.50;;;0.93;;
37477;SDS011;23334;54.316;10.182;2023-08-24T11:45:52;1.17;;;1.00;;
37477;SDS011;23334;54.316;10.182;2023-08-24T11:48:19;3.63;;;1.40;;
37477;SDS011;23334;54.316;10.182;2023-08-24T11:50:49;1.63;;;0.90;;
37477;SDS011;23334;54.316;10.182;2023-08-24T11:53:16;2.43;;;1.20;;
37477;SDS011;23334;54.316;10.182;2023-08-24T11:55:42;1.33;;;0.90;;
37477;SDS011;23334;54.316;10.182;2023-08-24T11:58:13;1.00;;;0.90;;
37477;SDS011;23334;54.316;10.182;2023-08-24T12:00:42;1.90;;;1.30;;
37477;SDS011;23334;54.316;10.182;2023-08-24T12:03:08;1.30;;;0.90;;
37477;SDS011;23334;54.316;10.182;2023-08-24T12:05:34;1.53;;;1.03;;
37477;SDS011;23334;54.316;10.182;2023-08-24T12:08:00;2.90;;;0.80;;
37477;SDS011;23334;54.316;10.182;2023-08-24T12:10:26;1.13;;;0.80;;
37477;SDS011;23334;54.316;10.182;2023-08-24T12:13:00;2.03;;;1.13;;
37477;SDS011;23334;54.316;10.182;2023-08-24T12:15:27;2.53;;;1.33;;
37477;SDS011;23334;54.316;10.182;2023-08-24T12:17:53;2.30;;;2.10;;
37477;SDS011;23334;54.316;10.182;2023-08-24T12:20:22;2.47;;;1.37;;
37477;SDS011;23334;54.316;10.182;2023-08-24T12:22:53;3.33;;;1.43;;
37477;SDS011;23334;54.316;10.182;2023-08-24T12:25:23;2.60;;;2.30;;
37477;SDS011;23334;54.316;10.182;2023-08-24T12:27:52;1.50;;;1.40;;
37477;SDS011;23334;54.316;10.182;2023-08-24T12:30:42;1.53;;;1.30;;
37477;SDS011;23334;54.316;10.182;2023-08-24T12:33:24;2.97;;;0.80;;
37477;SDS011;23334;54.316;10.182;2023-08-24T12:35:51;1.00;;;0.90;;
37477;SDS011;23334;54.316;10.182;2023-08-24T12:38:17;2.23;;;1.00;;
37477;SDS011;23334;54.316;10.182;2023-08-24T12:40:42;1.23;;;0.90;;
37477;SDS011;23334;54.316;10.182;2023-08-24T12:43:08;2.37;;;1.60;;
37477;SDS011;23334;54.316;10.182;2023-08-24T12:45:34;3.30;;;1.30;;
37477;SDS011;23334;54.316;10.182;2023-08-24T12:47:59;1.93;;;1.23;;
37477;SDS011;23334;54.316;10.182;2023-08-24T12:50:25;2.43;;;1.00;;
37477;SDS011;23334;54.316;10.182;2023-08-24T12:52:50;5.83;;;1.43;;
37477;SDS011;23334;54.316;10.182;2023-08-24T12:55:20;1.97;;;1.10;;
37477;SDS011;23334;54.316;10.182;2023-08-24T12:57:46;4.00;;;1.13;;
37477;SDS011;23334;54.316;10.182;2023-08-24T13:00:11;1.33;;;1.20;;
37477;SDS011;23334;54.316;10.182;2023-08-24T13:02:37;2.40;;;1.13;;
37477;SDS011;23334;54.316;10.182;2023-08-24T13:05:03;1.40;;;1.00;;
37477;SDS011;23334;54.316;10.182;2023-08-24T13:07:29;2.10;;;1.13;;
37477;SDS011;23334;54.316;10.182;2023-08-24T13:09:54;1.30;;;0.80;;
37477;SDS011;23334;54.316;10.182;2023-08-24T13:12:20;2.13;;;1.00;;
37477;SDS011;23334;54.316;10.182;2023-08-24T13:14:46;1.70;;;0.93;;
37477;SDS011;23334;54.316;10.182;2023-08-24T13:17:12;1.47;;;0.93;;
37477;SDS011;23334;54.316;10.182;2023-08-24T13:19:37;27.90;;;6.87;;
37477;SDS011;23334;54.316;10.182;2023-08-24T13:22:03;12.60;;;3.30;;
37477;SDS011;23334;54.316;10.182;2023-08-24T13:24:28;3.37;;;1.87;;
37477;SDS011;23334;54.316;10.182;2023-08-24T13:26:55;1.37;;;0.90;;
37477;SDS011;23334;54.316;10.182;2023-08-24T13:29:20;6.53;;;2.53;;
37477;SDS011;23334;54.316;10.182;2023-08-24T13:31:46;14.20;;;3.47;;
37477;SDS011;23334;54.316;10.182;2023-08-24T13:34:11;2.77;;;1.70;;
37477;SDS011;23334;54.316;10.182;2023-08-24T13:36:38;1.63;;;0.87;;
37477;SDS011;23334;54.316;10.182;2023-08-24T13:39:03;3.50;;;1.27;;
37477;SDS011;23334;54.316;10.182;2023-08-24T13:41:29;1.23;;;0.80;;
37477;SDS011;23334;54.316;10.182;2023-08-24T13:43:55;0.80;;;0.73;;
37477;SDS011;23334;54.316;10.182;2023-08-24T13:46:20;1.47;;;0.70;;
37477;SDS011;23334;54.316;10.182;2023-08-24T13:48:46;1.30;;;0.80;;
37477;SDS011;23334;54.316;10.182;2023-08-24T13:51:11;2.17;;;0.83;;
37477;SDS011;23334;54.316;10.182;2023-08-24T13:53:37;2.20;;;0.80;;
37477;SDS011;23334;54.316;10.182;2023-08-24T13:56:02;1.07;;;0.70;;
37477;SDS011;23334;54.316;10.182;2023-08-24T13:58:28;1.93;;;1.10;;
37477;SDS011;23334;54.316;10.182;2023-08-24T14:00:57;1.10;;;1.00;;
37477;SDS011;23334;54.316;10.182;2023-08-24T14:03:23;1.23;;;0.80;;
37477;SDS011;23334;54.316;10.182;2023-08-24T14:05:48;1.90;;;1.00;;
37477;SDS011;23334;54.316;10.182;2023-08-24T14:08:16;1.00;;;0.90;;
37477;SDS011;23334;54.316;10.182;2023-08-24T14:10:41;3.03;;;1.00;;
37477;SDS011;23334;54.316;10.182;2023-08-24T14:13:07;0.80;;;0.70;;
37477;SDS011;23334;54.316;10.182;2023-08-24T14:15:33;1.40;;;0.80;;
37477;SDS011;23334;54.316;10.182;2023-08-24T14:17:58;1.33;;;0.93;;
37477;SDS011;23334;54.316;10.182;2023-08-24T14:20:24;4.40;;;2.10;;
37477;SDS011;23334;54.316;10.182;2023-08-24T14:22:49;1.93;;;0.90;;
37477;SDS011;23334;54.316;10.182;2023-08-24T14:25:16;2.03;;;1.37;;
37477;SDS011;23334;54.316;10.182;2023-08-24T14:27:43;1.00;;;0.87;;
37477;SDS011;23334;54.316;10.182;2023-08-24T14:30:08;2.03;;;1.00;;
37477;SDS011;23334;54.316;10.182;2023-08-24T14:32:34;1.63;;;1.10;;
37477;SDS011;23334;54.316;10.182;2023-08-24T14:35:00;1.33;;;1.23;;
37477;SDS011;23334;54.316;10.182;2023-08-24T14:37:25;1.47;;;1.00;;
37477;SDS011;23334;54.316;10.182;2023-08-24T14:39:51;4.73;;;0.97;;
37477;SDS011;23334;54.316;10.182;2023-08-24T14:42:16;2.20;;;0.97;;
37477;SDS011;23334;54.316;10.182;2023-08-24T14:44:42;1.37;;;0.87;;